sensor_id;sensor_type;location;lat;lon;timestamp;P1;durP1;ratioP1;P2;durP2;ratioP2
72404;SDS011;60395;52.020;113.548;2024-03-06T00:01:24;11.70;;;3.97;;
72404;SDS011;60395;52.020;113.548;2024-03-06T00:04:28;14.63;;;3.85;;
72404;SDS011;60395;52.020;113.548;2024-03-06T00:07:33;29.67;;;8.73;;
72404;SDS011;60395;52.020;113.548;2024-03-06T00:10:36;12.50;;;3.92;;
72404;SDS011;60395;52.020;113.548;2024-03-06T00:13:39;22.20;;;7.32;;
72404;SDS011;60395;52.020;113.548;2024-03-06T00:16:43;39.58;;;11.25;;
72404;SDS011;60395;52.020;113.548;2024-03-06T00:19:46;46.13;;;13.03;;
72404;SDS011;60395;52.020;113.548;2024-03-06T00:22:50;41.90;;;11.52;;
72404;SDS011;60395;52.020;113.548;2024-03-06T00:25:53;125.38;;;29.30;;
72404;SDS011;60395;52.020;113.548;2024-03-06T00:28:57;216.55;;;51.70;;
72404;SDS011;60395;52.020;113.548;2024-03-06T00:32:00;338.20;;;70.30;;
72404;SDS011;60395;52.020;113.548;2024-03-06T00:35:04;302.35;;;68.65;;
72404;SDS011;60395;52.020;113.548;2024-03-06T00:38:07;257.50;;;61.03;;
72404;SDS011;60395;52.020;113.548;2024-03-06T00:41:11;246.27;;;61.72;;
72404;SDS011;60395;52.020;113.548;2024-03-06T00:44:14;226.30;;;59.72;;
72404;SDS011;60395;52.020;113.548;2024-03-06T00:47:19;223.90;;;56.25;;
72404;SDS011;60395;52.020;113.548;2024-03-06T00:50:24;194.57;;;51.88;;
72404;SDS011;60395;52.020;113.548;2024-03-06T00:53:27;186.60;;;50.45;;
72404;SDS011;60395;52.020;113.548;2024-03-06T00:56:30;172.73;;;49.28;;
72404;SDS011;60395;52.020;113.548;2024-03-06T00:59:34;183.47;;;47.80;;
72404;SDS011;60395;52.020;113.548;2024-03-06T01:02:38;156.40;;;44.20;;
72404;SDS011;60395;52.020;113.548;2024-03-06T01:05:41;171.23;;;50.53;;
72404;SDS011;60395;52.020;113.548;2024-03-06T01:08:45;192.93;;;53.97;;
72404;SDS011;60395;52.020;113.548;2024-03-06T01:11:48;164.05;;;49.97;;
72404;SDS011;60395;52.020;113.548;2024-03-06T01:14:52;180.68;;;46.40;;
72404;SDS011;60395;52.020;113.548;2024-03-06T01:17:55;153.75;;;43.72;;
72404;SDS011;60395;52.020;113.548;2024-03-06T01:21:00;179.85;;;50.75;;
72404;SDS011;60395;52.020;113.548;2024-03-06T01:24:06;162.98;;;49.13;;
72404;SDS011;60395;52.020;113.548;2024-03-06T01:27:10;148.30;;;44.97;;
72404;SDS011;60395;52.020;113.548;2024-03-06T01:30:13;111.57;;;37.30;;
72404;SDS011;60395;52.020;113.548;2024-03-06T01:33:16;78.63;;;26.00;;
72404;SDS011;60395;52.020;113.548;2024-03-06T01:36:20;75.97;;;27.47;;
72404;SDS011;60395;52.020;113.548;2024-03-06T01:39:24;69.60;;;23.10;;
72404;SDS011;60395;52.020;113.548;2024-03-06T01:42:27;37.35;;;13.82;;
72404;SDS011;60395;52.020;113.548;2024-03-06T01:45:31;46.13;;;15.40;;
72404;SDS011;60395;52.020;113.548;2024-03-06T01:48:35;34.38;;;12.88;;
72404;SDS011;60395;52.020;113.548;2024-03-06T01:51:39;36.97;;;14.98;;
72404;SDS011;60395;52.020;113.548;2024-03-06T01:54:44;44.72;;;14.43;;
72404;SDS011;60395;52.020;113.548;2024-03-06T01:57:49;51.10;;;18.70;;
72404;SDS011;60395;52.020;113.548;2024-03-06T02:00:53;45.50;;;16.20;;
72404;SDS011;60395;52.020;113.548;2024-03-06T02:03:57;45.75;;;11.88;;
72404;SDS011;60395;52.020;113.548;2024-03-06T02:07:02;41.10;;;12.13;;
72404;SDS011;60395;52.020;113.548;2024-03-06T02:10:06;35.33;;;12.05;;
72404;SDS011;60395;52.020;113.548;2024-03-06T02:13:12;29.75;;;10.35;;
72404;SDS011;60395;52.020;113.548;2024-03-06T02:16:16;23.63;;;9.50;;
72404;SDS011;60395;52.020;113.548;2024-03-06T02:19:20;29.95;;;9.30;;
72404;SDS011;60395;52.020;113.548;2024-03-06T02:22:24;29.33;;;9.25;;
72404;SDS011;60395;52.020;113.548;2024-03-06T02:25:27;17.30;;;6.57;;
72404;SDS011;60395;52.020;113.548;2024-03-06T02:28:30;27.13;;;8.73;;
72404;SDS011;60395;52.020;113.548;2024-03-06T02:31:34;32.47;;;9.68;;
72404;SDS011;60395;52.020;113.548;2024-03-06T02:34:37;31.67;;;9.23;;
72404;SDS011;60395;52.020;113.548;2024-03-06T02:37:41;28.42;;;8.60;;
72404;SDS011;60395;52.020;113.548;2024-03-06T02:40:46;13.80;;;5.10;;
72404;SDS011;60395;52.020;113.548;2024-03-06T02:43:50;21.58;;;6.03;;
72404;SDS011;60395;52.020;113.548;2024-03-06T02:46:54;24.55;;;6.35;;
72404;SDS011;60395;52.020;113.548;2024-03-06T02:49:58;26.10;;;5.68;;
72404;SDS011;60395;52.020;113.548;2024-03-06T02:53:01;24.63;;;4.88;;
72404;SDS011;60395;52.020;113.548;2024-03-06T02:56:05;16.10;;;5.43;;
72404;SDS011;60395;52.020;113.548;2024-03-06T02:59:09;20.02;;;5.93;;
72404;SDS011;60395;52.020;113.548;2024-03-06T03:02:12;21.25;;;6.47;;
72404;SDS011;60395;52.020;113.548;2024-03-06T03:05:16;22.00;;;6.25;;
72404;SDS011;60395;52.020;113.548;2024-03-06T03:08:19;21.25;;;5.30;;
72404;SDS011;60395;52.020;113.548;2024-03-06T03:11:23;20.10;;;4.93;;
72404;SDS011;60395;52.020;113.548;2024-03-06T03:14:26;19.08;;;5.70;;
72404;SDS011;60395;52.020;113.548;2024-03-06T03:17:29;19.92;;;5.28;;
72404;SDS011;60395;52.020;113.548;2024-03-06T03:20:36;18.25;;;5.72;;
72404;SDS011;60395;52.020;113.548;2024-03-06T03:23:44;29.10;;;5.35;;
72404;SDS011;60395;52.020;113.548;2024-03-06T03:26:47;9.95;;;3.40;;
72404;SDS011;60395;52.020;113.548;2024-03-06T03:29:51;19.10;;;5.38;;
72404;SDS011;60395;52.020;113.548;2024-03-06T03:32:54;21.60;;;5.75;;
72404;SDS011;60395;52.020;113.548;2024-03-06T03:35:57;30.08;;;6.10;;
72404;SDS011;60395;52.020;113.548;2024-03-06T03:39:01;29.65;;;6.70;;
72404;SDS011;60395;52.020;113.548;2024-03-06T03:45:09;15.35;;;4.30;;
72404;SDS011;60395;52.020;113.548;2024-03-06T03:48:12;14.23;;;4.40;;
72404;SDS011;60395;52.020;113.548;2024-03-06T03:51:17;17.90;;;5.13;;
72404;SDS011;60395;52.020;113.548;2024-03-06T03:54:20;17.95;;;4.95;;
72404;SDS011;60395;52.020;113.548;2024-03-06T03:57:24;14.68;;;4.70;;
72404;SDS011;60395;52.020;113.548;2024-03-06T04:00:27;22.20;;;6.68;;
72404;SDS011;60395;52.020;113.548;2024-03-06T04:03:34;16.90;;;6.13;;
72404;SDS011;60395;52.020;113.548;2024-03-06T04:06:39;8.95;;;4.07;;
72404;SDS011;60395;52.020;113.548;2024-03-06T04:09:42;14.10;;;4.60;;
72404;SDS011;60395;52.020;113.548;2024-03-06T04:12:46;17.20;;;5.20;;
72404;SDS011;60395;52.020;113.548;2024-03-06T04:15:49;11.70;;;4.53;;
72404;SDS011;60395;52.020;113.548;2024-03-06T04:18:53;11.80;;;3.97;;
72404;SDS011;60395;52.020;113.548;2024-03-06T04:21:57;10.93;;;3.08;;
72404;SDS011;60395;52.020;113.548;2024-03-06T04:25:01;8.95;;;2.58;;
72404;SDS011;60395;52.020;113.548;2024-03-06T04:28:06;8.30;;;3.08;;
72404;SDS011;60395;52.020;113.548;2024-03-06T04:31:10;8.13;;;2.87;;
72404;SDS011;60395;52.020;113.548;2024-03-06T04:34:17;7.93;;;2.35;;
72404;SDS011;60395;52.020;113.548;2024-03-06T04:37:20;8.20;;;3.13;;
72404;SDS011;60395;52.020;113.548;2024-03-06T04:40:24;8.63;;;3.20;;
72404;SDS011;60395;52.020;113.548;2024-03-06T04:43:28;8.90;;;2.70;;
72404;SDS011;60395;52.020;113.548;2024-03-06T04:46:31;10.43;;;2.65;;
72404;SDS011;60395;52.020;113.548;2024-03-06T04:49:35;6.32;;;2.63;;
72404;SDS011;60395;52.020;113.548;2024-03-06T04:52:39;7.27;;;2.80;;
72404;SDS011;60395;52.020;113.548;2024-03-06T04:55:43;13.10;;;3.20;;
72404;SDS011;60395;52.020;113.548;2024-03-06T04:58:47;9.73;;;2.88;;
72404;SDS011;60395;52.020;113.548;2024-03-06T05:01:52;9.25;;;3.13;;
72404;SDS011;60395;52.020;113.548;2024-03-06T05:04:55;6.20;;;2.97;;
72404;SDS011;60395;52.020;113.548;2024-03-06T05:08:16;8.00;;;2.75;;
72404;SDS011;60395;52.020;113.548;2024-03-06T05:11:36;9.82;;;3.22;;
72404;SDS011;60395;52.020;113.548;2024-03-06T05:14:58;7.70;;;4.05;;
72404;SDS011;60395;52.020;113.548;2024-03-06T05:18:18;6.97;;;3.17;;
72404;SDS011;60395;52.020;113.548;2024-03-06T05:21:39;6.65;;;2.75;;
72404;SDS011;60395;52.020;113.548;2024-03-06T05:24:59;8.68;;;3.38;;
72404;SDS011;60395;52.020;113.548;2024-03-06T05:28:19;7.50;;;3.13;;
72404;SDS011;60395;52.020;113.548;2024-03-06T05:31:40;9.82;;;3.55;;
72404;SDS011;60395;52.020;113.548;2024-03-06T05:35:00;13.88;;;3.80;;
72404;SDS011;60395;52.020;113.548;2024-03-06T05:38:23;17.27;;;4.57;;
72404;SDS011;60395;52.020;113.548;2024-03-06T05:41:43;8.55;;;3.78;;
72404;SDS011;60395;52.020;113.548;2024-03-06T05:45:04;7.30;;;3.50;;
72404;SDS011;60395;52.020;113.548;2024-03-06T05:51:49;6.93;;;3.30;;
72404;SDS011;60395;52.020;113.548;2024-03-06T05:55:10;8.85;;;3.45;;
72404;SDS011;60395;52.020;113.548;2024-03-06T05:58:30;13.82;;;3.95;;
72404;SDS011;60395;52.020;113.548;2024-03-06T06:01:37;6.13;;;3.00;;
72404;SDS011;60395;52.020;113.548;2024-03-06T06:04:40;10.95;;;3.08;;
72404;SDS011;60395;52.020;113.548;2024-03-06T06:07:55;12.18;;;4.05;;
72404;SDS011;60395;52.020;113.548;2024-03-06T06:10:59;11.85;;;3.45;;
72404;SDS011;60395;52.020;113.548;2024-03-06T06:14:02;14.40;;;5.07;;
72404;SDS011;60395;52.020;113.548;2024-03-06T06:17:06;6.50;;;3.30;;
72404;SDS011;60395;52.020;113.548;2024-03-06T06:20:13;12.20;;;3.30;;
72404;SDS011;60395;52.020;113.548;2024-03-06T06:23:21;15.68;;;3.40;;
72404;SDS011;60395;52.020;113.548;2024-03-06T06:26:24;9.13;;;3.28;;
72404;SDS011;60395;52.020;113.548;2024-03-06T06:29:28;8.15;;;2.50;;
72404;SDS011;60395;52.020;113.548;2024-03-06T06:32:32;10.25;;;3.10;;
72404;SDS011;60395;52.020;113.548;2024-03-06T06:38:40;7.78;;;2.60;;
72404;SDS011;60395;52.020;113.548;2024-03-06T06:41:43;9.00;;;3.25;;
72404;SDS011;60395;52.020;113.548;2024-03-06T06:44:53;12.55;;;2.78;;
72404;SDS011;60395;52.020;113.548;2024-03-06T06:48:02;6.40;;;2.90;;
72404;SDS011;60395;52.020;113.548;2024-03-06T06:51:06;13.37;;;4.00;;
72404;SDS011;60395;52.020;113.548;2024-03-06T06:54:10;8.90;;;3.35;;
72404;SDS011;60395;52.020;113.548;2024-03-06T06:57:13;13.68;;;3.70;;
72404;SDS011;60395;52.020;113.548;2024-03-06T07:00:18;11.63;;;4.47;;
72404;SDS011;60395;52.020;113.548;2024-03-06T07:03:24;9.00;;;3.20;;
72404;SDS011;60395;52.020;113.548;2024-03-06T07:06:34;18.67;;;3.55;;
72404;SDS011;60395;52.020;113.548;2024-03-06T07:09:38;7.33;;;2.50;;
72404;SDS011;60395;52.020;113.548;2024-03-06T07:12:41;6.55;;;2.95;;
72404;SDS011;60395;52.020;113.548;2024-03-06T07:15:45;17.60;;;3.60;;
72404;SDS011;60395;52.020;113.548;2024-03-06T07:18:49;4.80;;;2.60;;
72404;SDS011;60395;52.020;113.548;2024-03-06T07:21:52;6.65;;;2.90;;
72404;SDS011;60395;52.020;113.548;2024-03-06T07:24:56;8.90;;;2.72;;
72404;SDS011;60395;52.020;113.548;2024-03-06T07:27:59;10.13;;;4.07;;
72404;SDS011;60395;52.020;113.548;2024-03-06T07:31:09;7.82;;;3.40;;
72404;SDS011;60395;52.020;113.548;2024-03-06T07:34:17;10.35;;;3.20;;
72404;SDS011;60395;52.020;113.548;2024-03-06T07:37:39;9.98;;;3.10;;
72404;SDS011;60395;52.020;113.548;2024-03-06T07:40:43;7.78;;;3.15;;
72404;SDS011;60395;52.020;113.548;2024-03-06T07:43:52;7.93;;;2.95;;
72404;SDS011;60395;52.020;113.548;2024-03-06T07:46:55;15.40;;;3.75;;
72404;SDS011;60395;52.020;113.548;2024-03-06T07:50:03;8.65;;;3.45;;
72404;SDS011;60395;52.020;113.548;2024-03-06T07:53:09;15.77;;;4.32;;
72404;SDS011;60395;52.020;113.548;2024-03-06T07:56:17;15.40;;;4.28;;
72404;SDS011;60395;52.020;113.548;2024-03-06T07:59:21;9.63;;;4.40;;
72404;SDS011;60395;52.020;113.548;2024-03-06T08:02:31;7.80;;;2.78;;
72404;SDS011;60395;52.020;113.548;2024-03-06T08:05:38;8.05;;;3.08;;
72404;SDS011;60395;52.020;113.548;2024-03-06T08:08:49;9.05;;;2.92;;
72404;SDS011;60395;52.020;113.548;2024-03-06T08:11:54;17.17;;;3.42;;
72404;SDS011;60395;52.020;113.548;2024-03-06T08:15:13;9.07;;;3.25;;
72404;SDS011;60395;52.020;113.548;2024-03-06T08:18:17;13.15;;;3.70;;
72404;SDS011;60395;52.020;113.548;2024-03-06T08:21:21;9.80;;;3.90;;
72404;SDS011;60395;52.020;113.548;2024-03-06T08:24:28;7.22;;;2.67;;
72404;SDS011;60395;52.020;113.548;2024-03-06T08:27:32;10.07;;;3.03;;
72404;SDS011;60395;52.020;113.548;2024-03-06T08:30:44;8.93;;;3.47;;
72404;SDS011;60395;52.020;113.548;2024-03-06T08:33:48;8.10;;;3.63;;
72404;SDS011;60395;52.020;113.548;2024-03-06T08:36:55;6.70;;;3.40;;
72404;SDS011;60395;52.020;113.548;2024-03-06T08:40:05;12.10;;;3.45;;
72404;SDS011;60395;52.020;113.548;2024-03-06T08:43:26;10.77;;;4.43;;
72404;SDS011;60395;52.020;113.548;2024-03-06T08:46:30;10.48;;;3.95;;
72404;SDS011;60395;52.020;113.548;2024-03-06T08:49:46;9.40;;;3.47;;
72404;SDS011;60395;52.020;113.548;2024-03-06T08:52:50;16.90;;;5.45;;
72404;SDS011;60395;52.020;113.548;2024-03-06T08:56:01;18.90;;;4.65;;
72404;SDS011;60395;52.020;113.548;2024-03-06T08:59:08;10.60;;;4.22;;
72404;SDS011;60395;52.020;113.548;2024-03-06T09:02:17;12.10;;;3.67;;
72404;SDS011;60395;52.020;113.548;2024-03-06T09:05:23;17.10;;;3.72;;
72404;SDS011;60395;52.020;113.548;2024-03-06T09:08:27;18.30;;;5.22;;
72404;SDS011;60395;52.020;113.548;2024-03-06T09:11:39;34.17;;;6.68;;
72404;SDS011;60395;52.020;113.548;2024-03-06T09:14:46;25.20;;;6.72;;
72404;SDS011;60395;52.020;113.548;2024-03-06T09:17:53;22.30;;;5.88;;
72404;SDS011;60395;52.020;113.548;2024-03-06T09:20:57;27.90;;;7.45;;
72404;SDS011;60395;52.020;113.548;2024-03-06T09:24:01;19.25;;;5.15;;
72404;SDS011;60395;52.020;113.548;2024-03-06T09:27:05;19.50;;;6.55;;
72404;SDS011;60395;52.020;113.548;2024-03-06T09:30:13;23.95;;;7.53;;
72404;SDS011;60395;52.020;113.548;2024-03-06T09:33:18;24.08;;;7.38;;
72404;SDS011;60395;52.020;113.548;2024-03-06T09:36:26;36.85;;;8.15;;
72404;SDS011;60395;52.020;113.548;2024-03-06T09:39:29;27.17;;;7.85;;
72404;SDS011;60395;52.020;113.548;2024-03-06T09:42:33;18.05;;;5.85;;
72404;SDS011;60395;52.020;113.548;2024-03-06T09:45:38;17.60;;;6.63;;
72404;SDS011;60395;52.020;113.548;2024-03-06T09:48:45;16.55;;;5.80;;
72404;SDS011;60395;52.020;113.548;2024-03-06T09:51:50;17.63;;;6.53;;
72404;SDS011;60395;52.020;113.548;2024-03-06T09:54:59;25.95;;;7.15;;
72404;SDS011;60395;52.020;113.548;2024-03-06T10:01:07;24.15;;;8.02;;
72404;SDS011;60395;52.020;113.548;2024-03-06T10:04:21;32.00;;;10.30;;
72404;SDS011;60395;52.020;113.548;2024-03-06T10:07:27;32.53;;;12.02;;
72404;SDS011;60395;52.020;113.548;2024-03-06T10:10:31;30.20;;;10.43;;
72404;SDS011;60395;52.020;113.548;2024-03-06T10:13:35;13.35;;;6.30;;
72404;SDS011;60395;52.020;113.548;2024-03-06T10:16:55;20.45;;;7.25;;
72404;SDS011;60395;52.020;113.548;2024-03-06T10:20:00;18.42;;;6.28;;
72404;SDS011;60395;52.020;113.548;2024-03-06T10:23:11;16.17;;;6.97;;
72404;SDS011;60395;52.020;113.548;2024-03-06T10:26:29;21.90;;;7.38;;
72404;SDS011;60395;52.020;113.548;2024-03-06T10:29:34;16.77;;;6.32;;
72404;SDS011;60395;52.020;113.548;2024-03-06T10:32:41;21.52;;;6.82;;
72404;SDS011;60395;52.020;113.548;2024-03-06T10:35:47;19.65;;;6.93;;
72404;SDS011;60395;52.020;113.548;2024-03-06T10:42:02;27.35;;;8.65;;
72404;SDS011;60395;52.020;113.548;2024-03-06T10:45:13;32.47;;;11.10;;
72404;SDS011;60395;52.020;113.548;2024-03-06T10:48:23;60.25;;;16.58;;
72404;SDS011;60395;52.020;113.548;2024-03-06T10:51:41;34.88;;;12.15;;
72404;SDS011;60395;52.020;113.548;2024-03-06T10:54:50;47.88;;;14.23;;
72404;SDS011;60395;52.020;113.548;2024-03-06T10:57:54;52.65;;;17.23;;
72404;SDS011;60395;52.020;113.548;2024-03-06T11:01:01;66.60;;;22.00;;
72404;SDS011;60395;52.020;113.548;2024-03-06T11:04:16;60.33;;;20.55;;
72404;SDS011;60395;52.020;113.548;2024-03-06T11:07:26;60.38;;;18.67;;
72404;SDS011;60395;52.020;113.548;2024-03-06T11:13:43;55.50;;;14.80;;
72404;SDS011;60395;52.020;113.548;2024-03-06T11:17:03;58.05;;;15.32;;
72404;SDS011;60395;52.020;113.548;2024-03-06T11:20:18;49.65;;;16.60;;
72404;SDS011;60395;52.020;113.548;2024-03-06T11:23:22;53.38;;;15.93;;
72404;SDS011;60395;52.020;113.548;2024-03-06T11:26:31;52.00;;;15.20;;
72404;SDS011;60395;52.020;113.548;2024-03-06T11:33:19;41.63;;;15.73;;
72404;SDS011;60395;52.020;113.548;2024-03-06T11:36:27;59.70;;;18.67;;
72404;SDS011;60395;52.020;113.548;2024-03-06T11:39:33;53.55;;;17.77;;
72404;SDS011;60395;52.020;113.548;2024-03-06T11:42:44;104.32;;;31.13;;
72404;SDS011;60395;52.020;113.548;2024-03-06T11:46:11;49.03;;;17.58;;
72404;SDS011;60395;52.020;113.548;2024-03-06T11:49:21;46.50;;;15.70;;
72404;SDS011;60395;52.020;113.548;2024-03-06T11:52:33;43.50;;;14.27;;
72404;SDS011;60395;52.020;113.548;2024-03-06T11:55:37;42.90;;;14.27;;
72404;SDS011;60395;52.020;113.548;2024-03-06T11:58:45;37.95;;;13.73;;
72404;SDS011;60395;52.020;113.548;2024-03-06T12:01:52;52.65;;;18.98;;
72404;SDS011;60395;52.020;113.548;2024-03-06T12:05:18;58.08;;;17.83;;
72404;SDS011;60395;52.020;113.548;2024-03-06T12:08:25;46.67;;;16.48;;
72404;SDS011;60395;52.020;113.548;2024-03-06T12:11:35;47.95;;;19.35;;
72404;SDS011;60395;52.020;113.548;2024-03-06T12:14:40;49.88;;;17.75;;
72404;SDS011;60395;52.020;113.548;2024-03-06T12:20:55;45.85;;;18.10;;
72404;SDS011;60395;52.020;113.548;2024-03-06T12:24:05;52.42;;;19.30;;
72404;SDS011;60395;52.020;113.548;2024-03-06T12:27:12;58.45;;;18.42;;
72404;SDS011;60395;52.020;113.548;2024-03-06T12:30:20;41.85;;;14.98;;
72404;SDS011;60395;52.020;113.548;2024-03-06T12:33:25;25.73;;;7.95;;
72404;SDS011;60395;52.020;113.548;2024-03-06T12:36:31;39.10;;;14.63;;
72404;SDS011;60395;52.020;113.548;2024-03-06T12:42:44;36.47;;;12.88;;
72404;SDS011;60395;52.020;113.548;2024-03-06T12:45:48;33.40;;;11.57;;
72404;SDS011;60395;52.020;113.548;2024-03-06T12:48:52;36.45;;;11.93;;
72404;SDS011;60395;52.020;113.548;2024-03-06T12:51:56;38.77;;;13.27;;
72404;SDS011;60395;52.020;113.548;2024-03-06T12:55:02;50.90;;;20.15;;
72404;SDS011;60395;52.020;113.548;2024-03-06T12:58:07;48.03;;;18.77;;
72404;SDS011;60395;52.020;113.548;2024-03-06T13:01:11;48.65;;;16.95;;
72404;SDS011;60395;52.020;113.548;2024-03-06T13:04:24;80.28;;;27.05;;
72404;SDS011;60395;52.020;113.548;2024-03-06T13:07:32;42.75;;;16.17;;
72404;SDS011;60395;52.020;113.548;2024-03-06T13:10:53;27.08;;;11.07;;
72404;SDS011;60395;52.020;113.548;2024-03-06T13:14:06;36.95;;;11.27;;
72404;SDS011;60395;52.020;113.548;2024-03-06T13:17:09;24.50;;;9.33;;
72404;SDS011;60395;52.020;113.548;2024-03-06T13:20:13;33.33;;;11.88;;
72404;SDS011;60395;52.020;113.548;2024-03-06T13:23:19;50.22;;;14.27;;
72404;SDS011;60395;52.020;113.548;2024-03-06T13:26:24;39.60;;;14.95;;
72404;SDS011;60395;52.020;113.548;2024-03-06T13:29:27;41.72;;;12.57;;
72404;SDS011;60395;52.020;113.548;2024-03-06T13:32:31;33.93;;;12.70;;
72404;SDS011;60395;52.020;113.548;2024-03-06T13:35:34;32.33;;;13.15;;
72404;SDS011;60395;52.020;113.548;2024-03-06T13:38:38;28.23;;;11.70;;
72404;SDS011;60395;52.020;113.548;2024-03-06T13:41:42;28.27;;;10.77;;
72404;SDS011;60395;52.020;113.548;2024-03-06T13:44:45;36.23;;;12.10;;
72404;SDS011;60395;52.020;113.548;2024-03-06T13:47:49;37.45;;;15.95;;
72404;SDS011;60395;52.020;113.548;2024-03-06T13:50:53;35.03;;;14.30;;
72404;SDS011;60395;52.020;113.548;2024-03-06T13:53:56;35.42;;;13.80;;
72404;SDS011;60395;52.020;113.548;2024-03-06T13:56:59;32.45;;;10.80;;
72404;SDS011;60395;52.020;113.548;2024-03-06T14:00:06;35.42;;;14.52;;
72404;SDS011;60395;52.020;113.548;2024-03-06T14:03:20;39.08;;;13.20;;
72404;SDS011;60395;52.020;113.548;2024-03-06T14:06:25;56.70;;;21.55;;
72404;SDS011;60395;52.020;113.548;2024-03-06T14:09:28;66.72;;;22.30;;
72404;SDS011;60395;52.020;113.548;2024-03-06T14:12:31;29.97;;;11.87;;
72404;SDS011;60395;52.020;113.548;2024-03-06T14:15:35;23.85;;;10.18;;
72404;SDS011;60395;52.020;113.548;2024-03-06T14:18:40;24.73;;;9.50;;
72404;SDS011;60395;52.020;113.548;2024-03-06T14:21:43;22.93;;;10.17;;
72404;SDS011;60395;52.020;113.548;2024-03-06T14:24:47;32.03;;;12.63;;
72404;SDS011;60395;52.020;113.548;2024-03-06T14:27:51;19.85;;;8.25;;
72404;SDS011;60395;52.020;113.548;2024-03-06T14:30:54;25.38;;;9.70;;
72404;SDS011;60395;52.020;113.548;2024-03-06T14:33:57;22.50;;;8.57;;
72404;SDS011;60395;52.020;113.548;2024-03-06T14:37:05;26.95;;;9.65;;
72404;SDS011;60395;52.020;113.548;2024-03-06T14:40:09;35.22;;;15.50;;
72404;SDS011;60395;52.020;113.548;2024-03-06T14:43:13;45.92;;;15.55;;
72404;SDS011;60395;52.020;113.548;2024-03-06T14:46:17;32.45;;;13.52;;
72404;SDS011;60395;52.020;113.548;2024-03-06T14:49:21;25.63;;;10.25;;
72404;SDS011;60395;52.020;113.548;2024-03-06T14:52:26;24.08;;;9.90;;
72404;SDS011;60395;52.020;113.548;2024-03-06T14:55:29;18.77;;;8.95;;
72404;SDS011;60395;52.020;113.548;2024-03-06T14:58:32;24.75;;;9.60;;
72404;SDS011;60395;52.020;113.548;2024-03-06T15:01:36;30.33;;;11.47;;
72404;SDS011;60395;52.020;113.548;2024-03-06T15:04:40;71.80;;;19.38;;
72404;SDS011;60395;52.020;113.548;2024-03-06T15:07:43;58.70;;;15.00;;
72404;SDS011;60395;52.020;113.548;2024-03-06T15:10:47;41.23;;;14.73;;
72404;SDS011;60395;52.020;113.548;2024-03-06T15:13:50;59.93;;;16.90;;
72404;SDS011;60395;52.020;113.548;2024-03-06T15:16:54;167.70;;;34.60;;
72404;SDS011;60395;52.020;113.548;2024-03-06T15:20:02;121.20;;;30.13;;
72404;SDS011;60395;52.020;113.548;2024-03-06T15:23:06;97.20;;;28.02;;
72404;SDS011;60395;52.020;113.548;2024-03-06T15:26:09;90.60;;;26.70;;
72404;SDS011;60395;52.020;113.548;2024-03-06T15:29:13;87.15;;;28.90;;
72404;SDS011;60395;52.020;113.548;2024-03-06T15:32:17;94.22;;;32.38;;
72404;SDS011;60395;52.020;113.548;2024-03-06T15:35:21;44.15;;;18.02;;
72404;SDS011;60395;52.020;113.548;2024-03-06T15:38:26;30.05;;;12.65;;
72404;SDS011;60395;52.020;113.548;2024-03-06T15:41:29;27.73;;;9.88;;
72404;SDS011;60395;52.020;113.548;2024-03-06T15:44:33;25.02;;;7.60;;
72404;SDS011;60395;52.020;113.548;2024-03-06T15:47:36;20.23;;;6.95;;
72404;SDS011;60395;52.020;113.548;2024-03-06T15:50:41;17.33;;;7.20;;
72404;SDS011;60395;52.020;113.548;2024-03-06T15:53:45;22.48;;;8.30;;
72404;SDS011;60395;52.020;113.548;2024-03-06T15:56:49;21.65;;;8.13;;
72404;SDS011;60395;52.020;113.548;2024-03-06T15:59:53;21.95;;;9.05;;
72404;SDS011;60395;52.020;113.548;2024-03-06T16:02:57;20.30;;;7.43;;
72404;SDS011;60395;52.020;113.548;2024-03-06T16:06:01;15.32;;;6.88;;
72404;SDS011;60395;52.020;113.548;2024-03-06T16:09:19;16.38;;;6.90;;
72404;SDS011;60395;52.020;113.548;2024-03-06T16:12:22;23.90;;;8.48;;
72404;SDS011;60395;52.020;113.548;2024-03-06T16:15:26;46.03;;;16.25;;
72404;SDS011;60395;52.020;113.548;2024-03-06T16:18:30;37.38;;;14.48;;
72404;SDS011;60395;52.020;113.548;2024-03-06T16:21:33;27.53;;;9.30;;
72404;SDS011;60395;52.020;113.548;2024-03-06T16:24:37;27.30;;;8.82;;
72404;SDS011;60395;52.020;113.548;2024-03-06T16:27:41;25.33;;;7.80;;
72404;SDS011;60395;52.020;113.548;2024-03-06T16:30:45;23.25;;;8.05;;
72404;SDS011;60395;52.020;113.548;2024-03-06T16:33:48;23.05;;;7.70;;
72404;SDS011;60395;52.020;113.548;2024-03-06T16:36:52;13.52;;;5.80;;
72404;SDS011;60395;52.020;113.548;2024-03-06T16:39:55;15.50;;;5.10;;
72404;SDS011;60395;52.020;113.548;2024-03-06T16:42:59;13.80;;;6.80;;
72404;SDS011;60395;52.020;113.548;2024-03-06T16:46:03;19.73;;;7.03;;
72404;SDS011;60395;52.020;113.548;2024-03-06T16:49:07;21.25;;;8.65;;
72404;SDS011;60395;52.020;113.548;2024-03-06T16:52:10;18.85;;;5.32;;
72404;SDS011;60395;52.020;113.548;2024-03-06T16:55:15;18.45;;;6.35;;
72404;SDS011;60395;52.020;113.548;2024-03-06T16:58:20;24.52;;;7.03;;
72404;SDS011;60395;52.020;113.548;2024-03-06T17:01:23;21.37;;;7.43;;
72404;SDS011;60395;52.020;113.548;2024-03-06T17:04:27;26.53;;;10.17;;
72404;SDS011;60395;52.020;113.548;2024-03-06T17:07:30;13.75;;;5.05;;
72404;SDS011;60395;52.020;113.548;2024-03-06T17:10:34;20.08;;;8.15;;
72404;SDS011;60395;52.020;113.548;2024-03-06T17:13:37;29.00;;;9.38;;
72404;SDS011;60395;52.020;113.548;2024-03-06T17:16:41;24.15;;;9.52;;
72404;SDS011;60395;52.020;113.548;2024-03-06T17:19:45;25.77;;;8.93;;
72404;SDS011;60395;52.020;113.548;2024-03-06T17:22:48;24.73;;;9.40;;
72404;SDS011;60395;52.020;113.548;2024-03-06T17:25:52;28.43;;;10.10;;
72404;SDS011;60395;52.020;113.548;2024-03-06T17:28:55;43.63;;;14.50;;
72404;SDS011;60395;52.020;113.548;2024-03-06T17:31:59;31.63;;;11.85;;
72404;SDS011;60395;52.020;113.548;2024-03-06T17:35:02;19.17;;;8.53;;
72404;SDS011;60395;52.020;113.548;2024-03-06T17:38:06;23.50;;;8.40;;
72404;SDS011;60395;52.020;113.548;2024-03-06T17:41:09;24.65;;;8.40;;
72404;SDS011;60395;52.020;113.548;2024-03-06T17:44:13;15.43;;;6.25;;
72404;SDS011;60395;52.020;113.548;2024-03-06T17:47:16;15.70;;;5.75;;
72404;SDS011;60395;52.020;113.548;2024-03-06T17:50:20;16.50;;;8.23;;
72404;SDS011;60395;52.020;113.548;2024-03-06T17:53:23;27.63;;;8.93;;
72404;SDS011;60395;52.020;113.548;2024-03-06T17:56:27;16.30;;;6.78;;
72404;SDS011;60395;52.020;113.548;2024-03-06T17:59:30;14.07;;;5.97;;
72404;SDS011;60395;52.020;113.548;2024-03-06T18:02:34;20.33;;;5.97;;
72404;SDS011;60395;52.020;113.548;2024-03-06T18:05:37;13.38;;;4.88;;
72404;SDS011;60395;52.020;113.548;2024-03-06T18:08:40;11.63;;;4.20;;
72404;SDS011;60395;52.020;113.548;2024-03-06T18:11:44;12.37;;;5.23;;
72404;SDS011;60395;52.020;113.548;2024-03-06T18:14:48;9.73;;;4.13;;
72404;SDS011;60395;52.020;113.548;2024-03-06T18:17:51;18.27;;;4.97;;